Aérodrome :
LOGIN :

S'inscrire | Disclaimer

   EN    FR    IT 

 










Légende :    VFR   VFR Marginal   IFR   IFR Intensif   IFR Très Intensif
Visi : 
Plafond : 
>= 8 km
>= 3000ft
5 à 8 km
1000 à 3000 ft
1500m à 5 km
500 à 1000 ft
800 à 1500m
200 à 500 ft
< 800m
< 200 ft
Symboles :   Orages  Brouillard  Fortes neiges  Fortes précipitations  Vent > 20 kt
SIGMETs :   Divers  Orages  Givrage  Turbulence  Onde Orograph.  Cendres Volcan.







- Altitude de l'aérodrome : 278 ft
- Code IATA : RJK


LDRI - Rijeka

DERNIER METAR :
  • 261230Z 26005KT 180V310 CAVOK 34/18 Q1022

METARs EXPIRÉS :
  • 261200Z 26004KT 190V350 CAVOK 33/18 Q1022
  • 261130Z VRB04KT CAVOK 33/18 Q1022
  • 261100Z 13005KT 060V210 CAVOK 34/17 Q1022
  • 261030Z 12006KT 060V170 CAVOK 33/16 Q1023
  • 261000Z 11008KT 080V150 CAVOK 32/17 Q1023
  • 260930Z 12007KT 070V180 CAVOK 32/18 Q1023

TAF TAF LDRI
Valide du 26 à 12h jusqu'au 27 à 12h UTC


261125Z 2612/2712 VRB02KT CAVOK TX33/2712Z TN23/2703Z
TEMPO 2612/2616 32008KT
Pas de NOTAMs connus pour ce terrain.



MET'MAP, la Météo Aéronautique d'un coup d'oeil ! - Copyright ORBIFLY Décembre 2007 - Disclaimer

ORBIFLY MET'MAP TEAM :

Programmation & Développement : Alexandra Zaïnal
Conception & Développement : Baudouin d'Aumeries
Co-Programmation & Développement : Marc-Olivier Méhu
Soutien technique & logistique : Manuel Goepfert

Contact : metmap@orbifly.com




SOURCES & CREDITS :

   NOAA